createdAt,value
2022-08-27T04:00:35.387Z,15.70
2022-08-27T04:11:40.262Z,9.10
2022-08-27T04:22:40.140Z,10.70
2022-08-27T04:33:40.000Z,9.60
2022-08-27T04:44:39.885Z,9.20
2022-08-27T04:55:39.764Z,10.00
2022-08-27T05:06:39.630Z,10.10
2022-08-27T05:17:39.519Z,9.80
2022-08-27T05:28:39.385Z,10.00
2022-08-27T05:39:39.262Z,11.00
2022-08-27T05:50:39.174Z,11.40
2022-08-27T06:01:39.016Z,12.50
2022-08-27T06:12:38.891Z,13.10
2022-08-27T06:23:38.815Z,11.90
2022-08-27T06:34:38.638Z,10.70
2022-08-27T06:45:38.514Z,12.30
2022-08-27T06:56:38.392Z,11.50
2022-08-27T07:07:44.186Z,12.10
2022-08-27T07:18:38.230Z,12.60
2022-08-27T07:29:38.018Z,9.90
2022-08-27T07:40:37.953Z,12.80
2022-08-27T07:51:37.770Z,9.70
2022-08-27T08:02:37.663Z,11.40
2022-08-27T08:13:37.518Z,10.50
2022-08-27T08:24:37.405Z,12.00
2022-08-27T08:35:40.870Z,8.70
2022-08-27T08:46:37.153Z,9.30
2022-08-27T08:57:37.031Z,9.80
2022-08-27T09:08:41.282Z,7.80
2022-08-27T09:19:36.782Z,9.10
2022-08-27T09:30:36.709Z,9.00
2022-08-27T09:41:36.538Z,9.10
2022-08-27T09:52:37.797Z,9.80
2022-08-27T10:03:36.433Z,8.80
2022-08-27T10:14:36.170Z,9.90
2022-08-27T10:25:36.045Z,9.60
2022-08-27T10:36:35.939Z,8.10
2022-08-27T10:47:35.795Z,7.90
2022-08-27T10:58:36.678Z,10.20
2022-08-27T11:09:35.548Z,8.60
2022-08-27T11:20:35.441Z,9.50
2022-08-27T11:31:35.336Z,8.70
2022-08-27T11:42:36.183Z,8.30
2022-08-27T11:53:35.088Z,7.80
2022-08-27T12:04:34.988Z,9.40
2022-08-27T12:15:34.807Z,10.10
2022-08-27T12:26:34.695Z,8.30
2022-08-27T12:37:34.582Z,8.10
2022-08-27T12:48:34.443Z,7.70
2022-08-27T12:59:34.335Z,7.60
2022-08-27T13:10:34.198Z,8.70
2022-08-27T13:21:34.104Z,9.10
2022-08-27T13:32:33.959Z,9.40
2022-08-27T13:43:33.826Z,8.10
2022-08-27T13:54:33.706Z,6.80
2022-08-27T14:05:33.587Z,10.10
2022-08-27T14:16:33.557Z,8.10
2022-08-27T14:27:33.345Z,6.30
2022-08-27T14:38:33.227Z,8.00
2022-08-27T14:49:33.089Z,6.90
2022-08-27T15:00:32.963Z,6.20
2022-08-27T15:11:32.845Z,7.90
2022-08-27T15:22:32.721Z,6.70
2022-08-27T15:33:32.611Z,6.60
2022-08-27T15:44:32.483Z,7.00
2022-08-27T15:55:32.350Z,7.90
2022-08-27T16:06:32.225Z,6.70
2022-08-27T16:17:32.106Z,7.70
2022-08-27T16:28:31.990Z,7.00
2022-08-27T16:39:34.524Z,9.00
2022-08-27T16:50:31.769Z,8.70
2022-08-27T17:01:31.748Z,7.00
2022-08-27T17:12:31.488Z,7.60
2022-08-27T17:23:31.368Z,6.90
2022-08-27T17:34:31.257Z,8.00
2022-08-27T17:45:31.126Z,8.30
2022-08-27T17:56:30.995Z,8.60
2022-08-27T18:07:30.875Z,6.70
2022-08-27T18:18:30.742Z,7.10
2022-08-27T18:29:30.649Z,6.80
2022-08-27T18:40:30.684Z,6.10
2022-08-27T18:51:31.447Z,6.20
2022-08-27T19:02:30.406Z,5.30
2022-08-27T19:13:30.118Z,6.20
2022-08-27T19:24:29.994Z,5.50
2022-08-27T19:35:29.878Z,6.60
2022-08-27T19:46:29.765Z,6.80
2022-08-27T19:57:29.639Z,5.20
2022-08-27T20:08:29.508Z,5.60
2022-08-27T20:19:29.391Z,6.40
2022-08-27T20:30:30.258Z,4.00
2022-08-27T20:41:29.155Z,4.50
2022-08-27T20:52:29.012Z,4.40
